sensor_id;sensor_type;location;lat;lon;timestamp;temperature;humidity
17891;DHT22;9071;48.220;14.480;2023-12-20T00:04:00;-0.30;99.90
17891;DHT22;9071;48.220;14.480;2023-12-20T00:09:04;-0.40;99.90
17891;DHT22;9071;48.220;14.480;2023-12-20T00:14:06;-0.40;99.90
17891;DHT22;9071;48.220;14.480;2023-12-20T00:19:08;-0.50;99.90
17891;DHT22;9071;48.220;14.480;2023-12-20T00:24:11;-0.50;99.90
17891;DHT22;9071;48.220;14.480;2023-12-20T00:29:13;-0.50;99.90
17891;DHT22;9071;48.220;14.480;2023-12-20T00:34:15;-0.40;99.90
17891;DHT22;9071;48.220;14.480;2023-12-20T00:39:19;-0.40;99.90
17891;DHT22;9071;48.220;14.480;2023-12-20T00:44:21;-0.40;99.90
17891;DHT22;9071;48.220;14.480;2023-12-20T00:49:23;-0.40;99.90
17891;DHT22;9071;48.220;14.480;2023-12-20T00:54:26;-0.30;99.90
17891;DHT22;9071;48.220;14.480;2023-12-20T00:59:29;-0.30;99.90
17891;DHT22;9071;48.220;14.480;2023-12-20T01:04:31;-0.30;99.90
17891;DHT22;9071;48.220;14.480;2023-12-20T01:09:34;-0.30;99.90
17891;DHT22;9071;48.220;14.480;2023-12-20T01:14:36;-0.30;99.90
17891;DHT22;9071;48.220;14.480;2023-12-20T01:19:40;-0.30;99.90
17891;DHT22;9071;48.220;14.480;2023-12-20T01:24:43;-0.20;99.90
17891;DHT22;9071;48.220;14.480;2023-12-20T01:29:45;-0.20;99.90
17891;DHT22;9071;48.220;14.480;2023-12-20T01:34:47;-0.20;99.90
17891;DHT22;9071;48.220;14.480;2023-12-20T01:39:50;-0.20;99.90
17891;DHT22;9071;48.220;14.480;2023-12-20T01:44:52;-0.30;99.90
17891;DHT22;9071;48.220;14.480;2023-12-20T01:49:54;-0.30;99.90
17891;DHT22;9071;48.220;14.480;2023-12-20T01:54:59;-0.30;99.90
17891;DHT22;9071;48.220;14.480;2023-12-20T02:00:04;-0.20;99.90
17891;DHT22;9071;48.220;14.480;2023-12-20T02:05:07;-0.10;99.90
17891;DHT22;9071;48.220;14.480;2023-12-20T02:10:11;-0.10;99.90
17891;DHT22;9071;48.220;14.480;2023-12-20T02:15:13;0.00;99.90
17891;DHT22;9071;48.220;14.480;2023-12-20T02:20:15;0.10;99.90
17891;DHT22;9071;48.220;14.480;2023-12-20T02:25:19;0.10;99.90
17891;DHT22;9071;48.220;14.480;2023-12-20T02:30:21;0.20;99.90
17891;DHT22;9071;48.220;14.480;2023-12-20T02:35:23;0.30;99.90
17891;DHT22;9071;48.220;14.480;2023-12-20T02:40:26;0.40;99.90
17891;DHT22;9071;48.220;14.480;2023-12-20T02:45:28;0.50;99.90
17891;DHT22;9071;48.220;14.480;2023-12-20T02:50:31;0.70;99.90
17891;DHT22;9071;48.220;14.480;2023-12-20T02:55:34;0.80;99.90
17891;DHT22;9071;48.220;14.480;2023-12-20T03:00:36;0.90;99.90
17891;DHT22;9071;48.220;14.480;2023-12-20T03:05:38;0.90;99.90
17891;DHT22;9071;48.220;14.480;2023-12-20T03:10:41;1.00;99.90
17891;DHT22;9071;48.220;14.480;2023-12-20T03:15:43;1.00;99.90
17891;DHT22;9071;48.220;14.480;2023-12-20T03:20:45;1.10;99.90
17891;DHT22;9071;48.220;14.480;2023-12-20T03:25:50;1.10;99.90
17891;DHT22;9071;48.220;14.480;2023-12-20T03:30:52;1.20;99.90
17891;DHT22;9071;48.220;14.480;2023-12-20T03:35:54;1.20;99.90
17891;DHT22;9071;48.220;14.480;2023-12-20T03:40:57;1.20;99.90
17891;DHT22;9071;48.220;14.480;2023-12-20T03:45:59;1.30;99.90
17891;DHT22;9071;48.220;14.480;2023-12-20T03:51:01;1.30;99.90
17891;DHT22;9071;48.220;14.480;2023-12-20T03:56:05;1.30;99.90
17891;DHT22;9071;48.220;14.480;2023-12-20T04:01:09;1.30;99.90
17891;DHT22;9071;48.220;14.480;2023-12-20T04:06:16;1.40;99.90
17891;DHT22;9071;48.220;14.480;2023-12-20T04:11:20;1.40;99.90
17891;DHT22;9071;48.220;14.480;2023-12-20T04:16:22;1.40;99.90
17891;DHT22;9071;48.220;14.480;2023-12-20T04:21:24;1.40;99.90
17891;DHT22;9071;48.220;14.480;2023-12-20T04:26:27;1.40;99.90
17891;DHT22;9071;48.220;14.480;2023-12-20T04:31:30;1.40;99.90
17891;DHT22;9071;48.220;14.480;2023-12-20T04:36:32;1.40;99.90
17891;DHT22;9071;48.220;14.480;2023-12-20T04:41:35;1.50;99.90
17891;DHT22;9071;48.220;14.480;2023-12-20T04:46:37;1.50;99.90
17891;DHT22;9071;48.220;14.480;2023-12-20T04:51:39;1.50;99.90
17891;DHT22;9071;48.220;14.480;2023-12-20T04:56:42;1.50;99.90
17891;DHT22;9071;48.220;14.480;2023-12-20T05:01:44;1.50;99.90
17891;DHT22;9071;48.220;14.480;2023-12-20T05:06:46;1.50;99.90
17891;DHT22;9071;48.220;14.480;2023-12-20T05:11:51;1.50;99.90
17891;DHT22;9071;48.220;14.480;2023-12-20T05:16:53;1.60;99.90
17891;DHT22;9071;48.220;14.480;2023-12-20T05:21:55;1.60;99.90
17891;DHT22;9071;48.220;14.480;2023-12-20T05:26:59;1.60;99.90
17891;DHT22;9071;48.220;14.480;2023-12-20T05:32:01;1.60;99.90
17891;DHT22;9071;48.220;14.480;2023-12-20T05:37:04;1.70;99.90
17891;DHT22;9071;48.220;14.480;2023-12-20T05:42:07;1.70;99.90
17891;DHT22;9071;48.220;14.480;2023-12-20T05:47:09;1.70;99.90
17891;DHT22;9071;48.220;14.480;2023-12-20T05:52:11;1.70;99.90
17891;DHT22;9071;48.220;14.480;2023-12-20T05:57:15;1.70;99.90
17891;DHT22;9071;48.220;14.480;2023-12-20T06:02:17;1.80;99.90
17891;DHT22;9071;48.220;14.480;2023-12-20T06:07:19;1.90;99.90
17891;DHT22;9071;48.220;14.480;2023-12-20T06:12:22;2.10;99.90
17891;DHT22;9071;48.220;14.480;2023-12-20T06:17:24;2.10;99.90
17891;DHT22;9071;48.220;14.480;2023-12-20T06:22:26;2.00;99.90
17891;DHT22;9071;48.220;14.480;2023-12-20T06:27:30;1.90;99.90
17891;DHT22;9071;48.220;14.480;2023-12-20T06:32:33;1.70;99.90
17891;DHT22;9071;48.220;14.480;2023-12-20T06:37:35;1.70;99.90
17891;DHT22;9071;48.220;14.480;2023-12-20T06:42:38;1.70;99.90
17891;DHT22;9071;48.220;14.480;2023-12-20T06:47:42;1.80;99.90
17891;DHT22;9071;48.220;14.480;2023-12-20T06:52:44;1.80;99.90
17891;DHT22;9071;48.220;14.480;2023-12-20T06:57:47;1.90;99.90
17891;DHT22;9071;48.220;14.480;2023-12-20T07:02:49;1.90;99.90
17891;DHT22;9071;48.220;14.480;2023-12-20T07:07:51;2.00;99.90
17891;DHT22;9071;48.220;14.480;2023-12-20T07:12:54;2.00;99.90
17891;DHT22;9071;48.220;14.480;2023-12-20T07:17:56;2.10;99.90
17891;DHT22;9071;48.220;14.480;2023-12-20T07:23:00;2.20;99.90
17891;DHT22;9071;48.220;14.480;2023-12-20T07:28:04;2.40;99.90
17891;DHT22;9071;48.220;14.480;2023-12-20T07:33:06;2.40;99.90
17891;DHT22;9071;48.220;14.480;2023-12-20T07:38:09;2.50;99.90
17891;DHT22;9071;48.220;14.480;2023-12-20T07:43:14;2.50;99.90
17891;DHT22;9071;48.220;14.480;2023-12-20T07:48:16;2.50;99.90
17891;DHT22;9071;48.220;14.480;2023-12-20T07:53:18;2.70;99.90
17891;DHT22;9071;48.220;14.480;2023-12-20T07:58:21;2.70;99.90
17891;DHT22;9071;48.220;14.480;2023-12-20T08:03:23;2.90;99.90
17891;DHT22;9071;48.220;14.480;2023-12-20T08:08:25;3.00;99.90
17891;DHT22;9071;48.220;14.480;2023-12-20T08:13:29;3.20;99.90
17891;DHT22;9071;48.220;14.480;2023-12-20T08:18:31;3.30;99.90
17891;DHT22;9071;48.220;14.480;2023-12-20T08:23:33;3.50;99.90
17891;DHT22;9071;48.220;14.480;2023-12-20T08:28:36;3.60;99.90
17891;DHT22;9071;48.220;14.480;2023-12-20T08:33:38;3.80;99.90
17891;DHT22;9071;48.220;14.480;2023-12-20T08:38:40;4.00;99.90
17891;DHT22;9071;48.220;14.480;2023-12-20T08:43:44;4.20;99.90
17891;DHT22;9071;48.220;14.480;2023-12-20T08:48:46;4.30;99.90
17891;DHT22;9071;48.220;14.480;2023-12-20T08:53:48;4.40;99.90
17891;DHT22;9071;48.220;14.480;2023-12-20T08:58:51;4.50;99.90
17891;DHT22;9071;48.220;14.480;2023-12-20T09:03:53;4.60;99.90
17891;DHT22;9071;48.220;14.480;2023-12-20T09:08:55;4.60;99.90
17891;DHT22;9071;48.220;14.480;2023-12-20T09:13:58;4.70;99.90
17891;DHT22;9071;48.220;14.480;2023-12-20T09:19:00;4.80;99.90
17891;DHT22;9071;48.220;14.480;2023-12-20T09:24:03;4.90;99.90
17891;DHT22;9071;48.220;14.480;2023-12-20T09:29:06;4.90;99.90
17891;DHT22;9071;48.220;14.480;2023-12-20T09:34:10;5.00;99.90
17891;DHT22;9071;48.220;14.480;2023-12-20T09:39:12;5.10;99.90
17891;DHT22;9071;48.220;14.480;2023-12-20T09:44:16;5.30;99.90
17891;DHT22;9071;48.220;14.480;2023-12-20T09:49:19;5.40;99.90
17891;DHT22;9071;48.220;14.480;2023-12-20T09:54:22;5.40;99.90
17891;DHT22;9071;48.220;14.480;2023-12-20T09:59:25;5.50;99.90
17891;DHT22;9071;48.220;14.480;2023-12-20T10:04:28;5.60;99.90
17891;DHT22;9071;48.220;14.480;2023-12-20T10:09:31;5.70;99.90
17891;DHT22;9071;48.220;14.480;2023-12-20T10:14:35;5.80;99.90
17891;DHT22;9071;48.220;14.480;2023-12-20T10:19:37;5.90;99.90
17891;DHT22;9071;48.220;14.480;2023-12-20T10:24:40;6.10;99.90
17891;DHT22;9071;48.220;14.480;2023-12-20T10:29:44;6.10;99.90
17891;DHT22;9071;48.220;14.480;2023-12-20T10:34:46;6.20;99.90
17891;DHT22;9071;48.220;14.480;2023-12-20T10:39:50;6.40;99.90
17891;DHT22;9071;48.220;14.480;2023-12-20T10:44:54;6.40;99.90
17891;DHT22;9071;48.220;14.480;2023-12-20T10:49:57;6.40;99.90
17891;DHT22;9071;48.220;14.480;2023-12-20T10:55:00;6.50;99.90
17891;DHT22;9071;48.220;14.480;2023-12-20T11:00:06;6.50;99.90
17891;DHT22;9071;48.220;14.480;2023-12-20T11:05:19;6.50;99.90
17891;DHT22;9071;48.220;14.480;2023-12-20T11:10:29;6.40;99.90
17891;DHT22;9071;48.220;14.480;2023-12-20T11:15:33;6.40;99.90
17891;DHT22;9071;48.220;14.480;2023-12-20T11:20:36;6.40;99.90
17891;DHT22;9071;48.220;14.480;2023-12-20T11:25:49;6.40;99.90
17891;DHT22;9071;48.220;14.480;2023-12-20T11:30:53;6.40;99.90
17891;DHT22;9071;48.220;14.480;2023-12-20T11:35:56;6.50;99.90
17891;DHT22;9071;48.220;14.480;2023-12-20T11:40:59;6.60;99.90
17891;DHT22;9071;48.220;14.480;2023-12-20T11:46:07;6.50;99.90
17891;DHT22;9071;48.220;14.480;2023-12-20T11:51:10;6.40;99.90
17891;DHT22;9071;48.220;14.480;2023-12-20T11:56:12;6.20;99.90
17891;DHT22;9071;48.220;14.480;2023-12-20T12:01:15;6.20;99.90
17891;DHT22;9071;48.220;14.480;2023-12-20T12:06:17;6.20;99.90
17891;DHT22;9071;48.220;14.480;2023-12-20T12:11:19;6.20;99.90
17891;DHT22;9071;48.220;14.480;2023-12-20T12:16:23;6.20;99.90
17891;DHT22;9071;48.220;14.480;2023-12-20T12:21:25;6.20;99.90
17891;DHT22;9071;48.220;14.480;2023-12-20T12:26:30;6.20;99.90
17891;DHT22;9071;48.220;14.480;2023-12-20T12:31:33;6.20;99.90
17891;DHT22;9071;48.220;14.480;2023-12-20T12:36:36;6.30;99.90
17891;DHT22;9071;48.220;14.480;2023-12-20T12:41:40;6.50;99.90
17891;DHT22;9071;48.220;14.480;2023-12-20T12:46:43;6.50;99.90
17891;DHT22;9071;48.220;14.480;2023-12-20T12:51:45;6.60;99.90
17891;DHT22;9071;48.220;14.480;2023-12-20T12:56:47;6.60;99.90
17891;DHT22;9071;48.220;14.480;2023-12-20T13:01:51;6.60;99.90
17891;DHT22;9071;48.220;14.480;2023-12-20T13:06:54;6.60;99.90
17891;DHT22;9071;48.220;14.480;2023-12-20T13:11:57;6.60;99.90
17891;DHT22;9071;48.220;14.480;2023-12-20T13:17:01;6.70;99.90
17891;DHT22;9071;48.220;14.480;2023-12-20T13:22:04;6.60;99.90
17891;DHT22;9071;48.220;14.480;2023-12-20T13:27:06;6.60;99.90
17891;DHT22;9071;48.220;14.480;2023-12-20T13:32:10;6.70;99.90
17891;DHT22;9071;48.220;14.480;2023-12-20T13:37:12;6.70;99.90
17891;DHT22;9071;48.220;14.480;2023-12-20T13:42:14;6.80;99.90
17891;DHT22;9071;48.220;14.480;2023-12-20T13:47:17;6.90;99.90
17891;DHT22;9071;48.220;14.480;2023-12-20T13:52:20;7.00;99.90
17891;DHT22;9071;48.220;14.480;2023-12-20T13:57:22;6.90;99.90
17891;DHT22;9071;48.220;14.480;2023-12-20T14:02:25;6.90;99.90
17891;DHT22;9071;48.220;14.480;2023-12-20T14:07:27;6.90;99.90
17891;DHT22;9071;48.220;14.480;2023-12-20T14:12:30;6.90;99.90
17891;DHT22;9071;48.220;14.480;2023-12-20T14:17:34;6.80;99.90
17891;DHT22;9071;48.220;14.480;2023-12-20T14:22:36;6.80;99.90
17891;DHT22;9071;48.220;14.480;2023-12-20T14:27:39;6.70;99.90
17891;DHT22;9071;48.220;14.480;2023-12-20T14:32:44;6.80;99.90
17891;DHT22;9071;48.220;14.480;2023-12-20T14:37:46;6.80;99.90
17891;DHT22;9071;48.220;14.480;2023-12-20T14:42:48;6.80;99.90
17891;DHT22;9071;48.220;14.480;2023-12-20T14:47:52;6.70;99.90
17891;DHT22;9071;48.220;14.480;2023-12-20T14:52:54;6.40;99.90
17891;DHT22;9071;48.220;14.480;2023-12-20T14:57:56;6.30;99.90
17891;DHT22;9071;48.220;14.480;2023-12-20T15:02:59;6.00;99.90
17891;DHT22;9071;48.220;14.480;2023-12-20T15:08:02;5.60;99.90
17891;DHT22;9071;48.220;14.480;2023-12-20T15:13:04;5.40;99.90
17891;DHT22;9071;48.220;14.480;2023-12-20T15:18:08;5.20;99.90
17891;DHT22;9071;48.220;14.480;2023-12-20T15:23:10;4.90;99.90
17891;DHT22;9071;48.220;14.480;2023-12-20T15:28:12;4.90;99.90
17891;DHT22;9071;48.220;14.480;2023-12-20T15:33:15;4.70;99.90
17891;DHT22;9071;48.220;14.480;2023-12-20T15:38:17;4.50;99.90
17891;DHT22;9071;48.220;14.480;2023-12-20T15:43:19;4.50;99.90
17891;DHT22;9071;48.220;14.480;2023-12-20T15:48:22;4.50;99.90
17891;DHT22;9071;48.220;14.480;2023-12-20T15:53:29;4.50;99.90
17891;DHT22;9071;48.220;14.480;2023-12-20T15:58:31;4.50;99.90
17891;DHT22;9071;48.220;14.480;2023-12-20T16:03:35;4.40;99.90
17891;DHT22;9071;48.220;14.480;2023-12-20T16:08:37;4.50;99.90
17891;DHT22;9071;48.220;14.480;2023-12-20T16:13:39;4.70;99.90
17891;DHT22;9071;48.220;14.480;2023-12-20T16:18:42;4.80;99.90
17891;DHT22;9071;48.220;14.480;2023-12-20T16:23:44;4.80;99.90
17891;DHT22;9071;48.220;14.480;2023-12-20T16:28:46;4.60;99.90
17891;DHT22;9071;48.220;14.480;2023-12-20T16:33:50;4.40;99.90
17891;DHT22;9071;48.220;14.480;2023-12-20T16:38:52;4.20;99.90
17891;DHT22;9071;48.220;14.480;2023-12-20T16:43:54;4.10;99.90
17891;DHT22;9071;48.220;14.480;2023-12-20T16:48:57;4.30;99.90
17891;DHT22;9071;48.220;14.480;2023-12-20T16:53:59;4.60;99.90
17891;DHT22;9071;48.220;14.480;2023-12-20T16:59:01;4.80;99.90
17891;DHT22;9071;48.220;14.480;2023-12-20T17:04:05;4.80;99.90
17891;DHT22;9071;48.220;14.480;2023-12-20T17:09:07;4.70;99.90
17891;DHT22;9071;48.220;14.480;2023-12-20T17:14:09;4.60;99.90
17891;DHT22;9071;48.220;14.480;2023-12-20T17:19:14;4.40;99.90
17891;DHT22;9071;48.220;14.480;2023-12-20T17:24:16;4.20;99.90
17891;DHT22;9071;48.220;14.480;2023-12-20T17:29:18;4.30;99.90
17891;DHT22;9071;48.220;14.480;2023-12-20T17:34:21;4.20;99.90
17891;DHT22;9071;48.220;14.480;2023-12-20T17:39:23;4.00;99.90
17891;DHT22;9071;48.220;14.480;2023-12-20T17:44:25;3.80;99.90
17891;DHT22;9071;48.220;14.480;2023-12-20T17:49:29;3.70;99.90
17891;DHT22;9071;48.220;14.480;2023-12-20T17:54:31;3.80;99.90
17891;DHT22;9071;48.220;14.480;2023-12-20T17:59:33;3.80;99.90
17891;DHT22;9071;48.220;14.480;2023-12-20T18:04:37;4.00;99.90
17891;DHT22;9071;48.220;14.480;2023-12-20T18:09:39;4.20;99.90
17891;DHT22;9071;48.220;14.480;2023-12-20T18:14:41;4.10;99.90
17891;DHT22;9071;48.220;14.480;2023-12-20T18:19:45;4.10;99.90
17891;DHT22;9071;48.220;14.480;2023-12-20T18:24:47;4.10;99.90
17891;DHT22;9071;48.220;14.480;2023-12-20T18:29:51;4.30;99.90
17891;DHT22;9071;48.220;14.480;2023-12-20T18:34:54;4.50;99.90
17891;DHT22;9071;48.220;14.480;2023-12-20T18:39:56;4.40;99.90
17891;DHT22;9071;48.220;14.480;2023-12-20T18:44:58;4.30;99.90
17891;DHT22;9071;48.220;14.480;2023-12-20T18:50:02;4.20;99.90
17891;DHT22;9071;48.220;14.480;2023-12-20T18:55:08;4.10;99.90
17891;DHT22;9071;48.220;14.480;2023-12-20T19:00:11;4.10;99.90
17891;DHT22;9071;48.220;14.480;2023-12-20T19:05:15;4.20;99.90
17891;DHT22;9071;48.220;14.480;2023-12-20T19:10:17;4.30;99.90
17891;DHT22;9071;48.220;14.480;2023-12-20T19:15:19;4.40;99.90
17891;DHT22;9071;48.220;14.480;2023-12-20T19:20:22;4.50;99.90
17891;DHT22;9071;48.220;14.480;2023-12-20T19:25:24;4.60;99.90
17891;DHT22;9071;48.220;14.480;2023-12-20T19:30:27;4.60;99.90
17891;DHT22;9071;48.220;14.480;2023-12-20T19:35:30;4.60;99.90
17891;DHT22;9071;48.220;14.480;2023-12-20T19:40:33;4.80;99.90
17891;DHT22;9071;48.220;14.480;2023-12-20T19:45:35;4.80;99.90
17891;DHT22;9071;48.220;14.480;2023-12-20T19:50:38;4.90;99.90
17891;DHT22;9071;48.220;14.480;2023-12-20T19:55:40;4.90;99.90
17891;DHT22;9071;48.220;14.480;2023-12-20T20:00:42;5.10;99.90
17891;DHT22;9071;48.220;14.480;2023-12-20T20:05:46;5.20;99.90
17891;DHT22;9071;48.220;14.480;2023-12-20T20:10:48;5.10;99.90
17891;DHT22;9071;48.220;14.480;2023-12-20T20:15:50;5.10;99.90
17891;DHT22;9071;48.220;14.480;2023-12-20T20:20:53;5.10;99.90
17891;DHT22;9071;48.220;14.480;2023-12-20T20:25:55;5.20;99.90
17891;DHT22;9071;48.220;14.480;2023-12-20T20:30:57;5.20;99.90
17891;DHT22;9071;48.220;14.480;2023-12-20T20:36:00;5.20;99.90
17891;DHT22;9071;48.220;14.480;2023-12-20T20:41:04;5.20;99.90
17891;DHT22;9071;48.220;14.480;2023-12-20T20:46:06;5.20;99.90
17891;DHT22;9071;48.220;14.480;2023-12-20T20:51:10;5.20;99.90
17891;DHT22;9071;48.220;14.480;2023-12-20T20:56:12;5.20;99.90
17891;DHT22;9071;48.220;14.480;2023-12-20T21:01:14;5.20;99.90
17891;DHT22;9071;48.220;14.480;2023-12-20T21:06:18;5.10;99.90
17891;DHT22;9071;48.220;14.480;2023-12-20T21:11:21;5.10;99.90
17891;DHT22;9071;48.220;14.480;2023-12-20T21:16:23;5.10;99.90
17891;DHT22;9071;48.220;14.480;2023-12-20T21:21:27;5.10;99.90
17891;DHT22;9071;48.220;14.480;2023-12-20T21:26:29;5.10;99.90
17891;DHT22;9071;48.220;14.480;2023-12-20T21:31:30;5.10;99.90
17891;DHT22;9071;48.220;14.480;2023-12-20T21:36:34;5.00;99.90
17891;DHT22;9071;48.220;14.480;2023-12-20T21:41:36;5.00;99.90
17891;DHT22;9071;48.220;14.480;2023-12-20T21:46:38;5.00;99.90
17891;DHT22;9071;48.220;14.480;2023-12-20T21:51:43;4.80;99.90
17891;DHT22;9071;48.220;14.480;2023-12-20T21:56:45;4.70;99.90
17891;DHT22;9071;48.220;14.480;2023-12-20T22:01:49;4.60;99.90
17891;DHT22;9071;48.220;14.480;2023-12-20T22:06:52;4.50;99.90
17891;DHT22;9071;48.220;14.480;2023-12-20T22:11:54;4.60;99.90
17891;DHT22;9071;48.220;14.480;2023-12-20T22:16:56;4.70;99.90
17891;DHT22;9071;48.220;14.480;2023-12-20T22:21:59;4.80;99.90
17891;DHT22;9071;48.220;14.480;2023-12-20T22:27:02;4.90;99.90
17891;DHT22;9071;48.220;14.480;2023-12-20T22:32:05;5.00;99.90
17891;DHT22;9071;48.220;14.480;2023-12-20T22:37:09;5.20;99.90
17891;DHT22;9071;48.220;14.480;2023-12-20T22:42:11;5.20;99.90
17891;DHT22;9071;48.220;14.480;2023-12-20T22:47:13;5.20;99.90
17891;DHT22;9071;48.220;14.480;2023-12-20T22:52:17;5.10;99.90
17891;DHT22;9071;48.220;14.480;2023-12-20T22:57:19;5.10;99.90
17891;DHT22;9071;48.220;14.480;2023-12-20T23:02:21;5.20;99.90
17891;DHT22;9071;48.220;14.480;2023-12-20T23:07:24;5.30;99.90
17891;DHT22;9071;48.220;14.480;2023-12-20T23:12:26;5.30;99.90
17891;DHT22;9071;48.220;14.480;2023-12-20T23:17:28;5.40;99.90
17891;DHT22;9071;48.220;14.480;2023-12-20T23:22:31;5.40;99.90
17891;DHT22;9071;48.220;14.480;2023-12-20T23:27:33;5.40;99.90
17891;DHT22;9071;48.220;14.480;2023-12-20T23:32:35;5.40;99.90
17891;DHT22;9071;48.220;14.480;2023-12-20T23:37:39;5.40;99.90
17891;DHT22;9071;48.220;14.480;2023-12-20T23:42:41;5.40;99.90
17891;DHT22;9071;48.220;14.480;2023-12-20T23:47:43;5.40;99.90
17891;DHT22;9071;48.220;14.480;2023-12-20T23:52:46;5.40;99.90
17891;DHT22;9071;48.220;14.480;2023-12-20T23:57:50;5.30;99.90
